Time;durP1;ratioP1;P1;durP2;ratioP2;P2;SDS_P1;SDS_P2;PMS_P1;PMS_P2;Temp;Humidity;BMP_temperature;BMP_pressure;BME280_temperature;BME280_humidity;BME280_pressure;Samples;Min_cycle;Max_cycle;Signal;HPM_P1;HPM_P2
2022/08/23 00:00:31;;;;;;;9.95;4.30;;;23.30;92.00;;;;;;5097980;28;20607;-64
2022/08/23 00:02:56;;;;;;;16.23;4.68;;;23.30;92.10;;;;;;5097466;28;20181;-64
2022/08/23 00:05:22;;;;;;;14.68;4.90;;;23.20;92.10;;;;;;5110553;28;20259;-64
2022/08/23 00:07:48;;;;;;;11.70;4.72;;;23.20;92.20;;;;;;5078161;28;20319;-64
2022/08/23 00:10:16;;;;;;;10.57;4.40;;;23.20;92.30;;;;;;5078900;28;20216;-64
2022/08/23 00:12:43;;;;;;;12.05;4.28;;;23.10;92.40;;;;;;5112670;28;20189;-64
2022/08/23 00:15:11;;;;;;;11.23;4.55;;;23.10;92.50;;;;;;5114123;28;20209;-64
2022/08/23 00:17:38;;;;;;;9.43;4.22;;;23.10;92.70;;;;;;5091502;28;20166;-64
2022/08/23 00:20:11;;;;;;;11.63;4.28;;;23.10;92.80;;;;;;5110047;28;20594;-64
2022/08/23 00:22:38;;;;;;;11.88;4.70;;;23.10;93.00;;;;;;5084269;28;20177;-64
2022/08/23 00:25:06;;;;;;;11.20;4.35;;;23.10;93.10;;;;;;5096372;28;20169;-64
2022/08/23 00:27:32;;;;;;;8.85;3.95;;;23.10;93.10;;;;;;5112690;28;20193;-65
2022/08/23 00:29:59;;;;;;;11.38;4.35;;;23.10;93.20;;;;;;5096608;28;20181;-64
2022/08/23 00:32:31;;;;;;;13.70;4.43;;;23.10;93.30;;;;;;5114345;28;20538;-64
2022/08/23 00:34:59;;;;;;;16.42;5.00;;;23.10;93.30;;;;;;5103006;28;20225;-64
2022/08/23 00:37:26;;;;;;;12.15;5.10;;;23.10;93.40;;;;;;5110762;28;20196;-64
2022/08/23 00:39:52;;;;;;;11.20;4.88;;;23.00;93.30;;;;;;5111536;28;20204;-67
2022/08/23 00:48:38;;;;;;;11.00;4.45;;;22.90;93.70;;;;;;5116023;28;20173;-64
2022/08/23 00:51:11;;;;;;;12.40;4.65;;;22.90;93.80;;;;;;5092194;28;20249;-64
2022/08/23 00:53:41;;;;;;;13.15;5.35;;;22.90;94.00;;;;;;5071902;28;20173;-64
2022/08/23 00:56:11;;;;;;;13.50;4.65;;;22.90;94.00;;;;;;5095551;28;20680;-64
2022/08/23 00:58:37;;;;;;;10.65;4.28;;;22.90;94.00;;;;;;5077452;28;20634;-64
2022/08/23 01:01:05;;;;;;;11.82;4.60;;;22.90;94.10;;;;;;5069056;28;20181;-65
2022/08/23 01:03:33;;;;;;;8.50;4.30;;;22.90;94.20;;;;;;5113679;28;20177;-62
2022/08/23 01:06:04;;;;;;;10.27;4.75;;;22.90;94.30;;;;;;5106264;28;20213;-63
2022/08/23 01:08:33;;;;;;;10.75;4.60;;;22.90;94.30;;;;;;5077269;28;20296;-63
2022/08/23 01:11:05;;;;;;;11.73;5.05;;;23.00;94.30;;;;;;5060946;28;20167;-64
2022/08/23 01:13:40;;;;;;;16.70;5.13;;;23.00;94.20;;;;;;5102128;28;20178;-64
2022/08/23 01:16:12;;;;;;;14.57;4.63;;;23.00;94.20;;;;;;5098625;28;20287;-64
2022/08/23 01:18:40;;;;;;;12.40;5.00;;;23.00;94.20;;;;;;5085849;28;20216;-64
2022/08/23 01:21:42;;;;;;;11.88;5.00;;;23.00;94.20;;;;;;5096049;28;20201;-63
2022/08/23 01:24:09;;;;;;;12.38;5.13;;;23.00;94.20;;;;;;5070601;28;20181;-64
2022/08/23 01:26:35;;;;;;;13.00;5.00;;;23.00;94.20;;;;;;5095110;28;20178;-64
2022/08/23 01:29:05;;;;;;;14.23;5.13;;;23.00;94.20;;;;;;5095167;28;20178;-64
2022/08/23 01:31:33;;;;;;;12.30;4.90;;;23.00;94.30;;;;;;5086464;28;20177;-65
2022/08/23 01:34:05;;;;;;;18.15;4.90;;;23.00;94.30;;;;;;5076296;28;20205;-64
2022/08/23 01:36:32;;;;;;;10.38;4.60;;;23.00;94.30;;;;;;5086058;28;20655;-64
2022/08/23 01:38:59;;;;;;;12.52;4.72;;;23.00;94.40;;;;;;5093310;28;20218;-63
2022/08/23 01:41:25;;;;;;;15.23;4.95;;;23.00;94.40;;;;;;5083781;28;20278;-63
2022/08/23 01:43:51;;;;;;;15.43;5.22;;;22.90;94.40;;;;;;5060289;28;20185;-63
2022/08/23 01:46:21;;;;;;;9.02;5.22;;;22.90;94.60;;;;;;5075795;28;20194;-64
2022/08/23 01:48:50;;;;;;;15.77;5.57;;;22.90;94.70;;;;;;5085444;28;20177;-63
2022/08/23 01:51:18;;;;;;;11.02;5.78;;;22.80;94.70;;;;;;5103133;28;20178;-66
2022/08/23 01:53:45;;;;;;;14.75;5.47;;;22.80;94.90;;;;;;5094710;28;20181;-65
2022/08/23 01:56:13;;;;;;;16.35;5.60;;;22.70;95.00;;;;;;5092731;28;20216;-65
2022/08/23 01:58:39;;;;;;;11.43;5.30;;;22.70;95.20;;;;;;5094654;28;20197;-65
2022/08/23 02:01:06;;;;;;;12.00;6.38;;;22.70;95.30;;;;;;5086415;28;20177;-65
2022/08/23 02:03:34;;;;;;;13.18;5.63;;;22.60;95.50;;;;;;5074789;28;20527;-67
2022/08/23 02:06:00;;;;;;;17.73;6.60;;;22.40;95.80;;;;;;5065524;28;20279;-65
2022/08/23 02:11:16;;;;;;;12.80;7.07;;;22.30;96.30;;;;;;5070898;28;20625;-65
2022/08/23 02:13:46;;;;;;;12.27;6.35;;;22.20;96.50;;;;;;5076176;28;20176;-64
2022/08/23 02:16:25;;;;;;;14.35;6.47;;;22.20;96.60;;;;;;5075608;28;20669;-64
2022/08/23 02:18:52;;;;;;;10.93;5.82;;;22.20;96.70;;;;;;5108710;28;20173;-65
2022/08/23 02:21:19;;;;;;;14.18;6.50;;;22.20;96.70;;;;;;5088275;28;20181;-65
2022/08/23 02:23:45;;;;;;;13.18;6.03;;;22.30;96.80;;;;;;5077130;28;20205;-66
2022/08/23 02:26:12;;;;;;;13.45;6.30;;;22.30;96.80;;;;;;5102782;28;20190;-65
2022/08/23 02:28:41;;;;;;;14.65;6.38;;;22.30;96.80;;;;;;5075813;28;20648;-65
2022/08/23 02:31:07;;;;;;;14.52;6.32;;;22.40;96.90;;;;;;5077723;28;20229;-65
2022/08/23 02:33:33;;;;;;;13.80;6.60;;;22.40;96.80;;;;;;5075142;28;20272;-66
2022/08/23 02:36:00;;;;;;;16.70;6.40;;;22.40;96.90;;;;;;5094306;28;20292;-65
2022/08/23 02:38:26;;;;;;;16.35;6.65;;;22.40;96.90;;;;;;5082702;28;20193;-69
2022/08/23 02:40:51;;;;;;;12.95;6.43;;;22.40;96.90;;;;;;5069108;28;20201;-65
2022/08/23 02:43:18;;;;;;;12.93;6.35;;;22.40;96.90;;;;;;5102405;28;20597;-65
2022/08/23 02:45:44;;;;;;;15.68;6.90;;;22.40;97.00;;;;;;5087927;28;20238;-65
2022/08/23 02:48:10;;;;;;;13.27;6.13;;;22.40;97.00;;;;;;5077073;28;20242;-65
2022/08/23 02:50:51;;;;;;;15.30;6.38;;;22.40;97.00;;;;;;5105984;28;20213;-65
2022/08/23 02:53:17;;;;;;;14.73;6.50;;;22.40;97.20;;;;;;5095858;28;20268;-64
2022/08/23 02:55:45;;;;;;;14.82;7.10;;;22.40;97.20;;;;;;5111032;28;20334;-65
2022/08/23 02:58:12;;;;;;;12.70;6.47;;;22.50;97.20;;;;;;5090337;28;20629;-64
2022/08/23 03:00:38;;;;;;;17.98;6.65;;;22.50;97.20;;;;;;5094338;28;20205;-65
2022/08/23 03:03:04;;;;;;;9.73;5.80;;;22.50;97.20;;;;;;5094401;28;20274;-65
2022/08/23 03:05:31;;;;;;;12.52;5.75;;;22.50;97.30;;;;;;5089439;28;20588;-64
2022/08/23 03:07:57;;;;;;;12.10;6.40;;;22.50;97.30;;;;;;5077805;28;20242;-65
2022/08/23 03:10:23;;;;;;;12.75;6.40;;;22.50;97.40;;;;;;5110586;28;20548;-65
2022/08/23 03:12:56;;;;;;;11.40;6.55;;;22.50;97.40;;;;;;5091488;28;20200;-65
2022/08/23 03:15:22;;;;;;;13.02;6.70;;;22.50;97.50;;;;;;5107803;28;20213;-64
2022/08/23 03:17:48;;;;;;;10.93;5.72;;;22.50;97.60;;;;;;5075109;28;20177;-64
2022/08/23 03:20:14;;;;;;;12.60;6.50;;;22.50;97.70;;;;;;5087691;28;20261;-65
2022/08/23 03:22:40;;;;;;;13.70;6.20;;;22.50;97.80;;;;;;5075176;28;20290;-65
2022/08/23 03:25:07;;;;;;;14.80;6.20;;;22.50;98.00;;;;;;5085244;28;20191;-65
2022/08/23 03:27:48;;;;;;;13.60;6.32;;;22.50;98.20;;;;;;5074912;28;20178;-64
2022/08/23 03:30:14;;;;;;;12.68;6.30;;;22.50;98.40;;;;;;5085459;28;20261;-64
2022/08/23 03:32:40;;;;;;;15.13;6.65;;;22.40;98.50;;;;;;5075099;28;20625;-64
2022/08/23 03:35:06;;;;;;;15.55;6.55;;;22.40;98.60;;;;;;5089605;28;20245;-64
2022/08/23 03:37:32;;;;;;;12.82;6.53;;;22.40;98.70;;;;;;5074466;28;20180;-64
2022/08/23 03:39:58;;;;;;;16.67;6.85;;;22.30;98.80;;;;;;5059795;28;20271;-64
2022/08/23 03:42:24;;;;;;;16.95;7.60;;;22.30;98.90;;;;;;5090727;28;20325;-64
2022/08/23 03:44:50;;;;;;;15.48;7.25;;;22.20;99.00;;;;;;5091121;28;20178;-65
2022/08/23 03:47:16;;;;;;;16.70;7.15;;;22.20;99.10;;;;;;5110465;28;20188;-65
2022/08/23 03:49:44;;;;;;;12.07;7.25;;;22.20;99.40;;;;;;5082632;28;20225;-65
2022/08/23 03:52:10;;;;;;;15.15;7.80;;;22.10;99.40;;;;;;5094463;28;20204;-64
2022/08/23 03:54:36;;;;;;;14.85;8.05;;;22.10;99.50;;;;;;5113224;28;20287;-64
2022/08/23 03:57:06;;;;;;;14.85;8.00;;;22.10;99.60;;;;;;5076443;28;20182;-64
2022/08/23 03:59:35;;;;;;;15.73;7.95;;;22.10;99.60;;;;;;5077169;28;20178;-64
2022/08/23 04:02:03;;;;;;;16.17;8.60;;;22.00;99.70;;;;;;5092703;28;20588;-64
2022/08/23 04:04:29;;;;;;;16.02;8.20;;;22.00;99.80;;;;;;5077900;28;20189;-64
2022/08/23 04:07:20;;;;;;;20.08;8.52;;;21.90;99.90;;;;;;5089639;28;20637;-64
2022/08/23 04:09:47;;;;;;;17.83;8.48;;;21.90;99.90;;;;;;5074511;28;20191;-64
2022/08/23 04:12:14;;;;;;;22.73;9.35;;;21.90;99.90;;;;;;5089783;28;20184;-64
2022/08/23 04:14:40;;;;;;;15.23;8.73;;;21.90;99.90;;;;;;5076203;28;20525;-64
2022/08/23 04:17:06;;;;;;;19.52;9.32;;;21.90;99.90;;;;;;5058616;28;20189;-64
2022/08/23 04:19:32;;;;;;;17.17;10.13;;;21.80;99.90;;;;;;5089758;28;20187;-64
2022/08/23 04:22:03;;;;;;;20.65;9.90;;;21.80;99.90;;;;;;5077660;28;20198;-65
2022/08/23 04:24:37;;;;;;;20.65;9.85;;;21.80;99.80;;;;;;5075419;28;20217;-64
2022/08/23 04:27:04;;;;;;;16.88;10.52;;;21.80;99.80;;;;;;5094397;28;20178;-64
2022/08/23 04:29:30;;;;;;;24.92;9.60;;;21.80;99.80;;;;;;5097200;28;20181;-64
2022/08/23 04:31:57;;;;;;;17.80;9.82;;;21.80;99.80;;;;;;5097425;28;20188;-64
2022/08/23 04:34:22;;;;;;;18.83;9.50;;;21.80;99.80;;;;;;5098728;28;20201;-65
2022/08/23 04:36:48;;;;;;;17.30;9.93;;;21.80;99.80;;;;;;5086712;28;20200;-65
2022/08/23 04:39:15;;;;;;;17.67;9.60;;;21.80;99.70;;;;;;5095690;28;20280;-64
2022/08/23 04:44:26;;;;;;;15.02;9.80;;;21.90;99.70;;;;;;5094341;28;20213;-65
2022/08/23 04:46:54;;;;;;;17.33;9.60;;;21.90;99.70;;;;;;5077367;28;20272;-64
2022/08/23 04:49:22;;;;;;;24.52;10.10;;;21.90;99.70;;;;;;5097558;28;20320;-65
2022/08/23 04:51:48;;;;;;;22.98;9.27;;;21.90;99.70;;;;;;5087456;28;20548;-65
2022/08/23 04:54:14;;;;;;;16.63;9.45;;;21.90;99.70;;;;;;5115825;28;20177;-64
2022/08/23 04:56:47;;;;;;;19.77;10.80;;;21.90;99.70;;;;;;5096603;28;20185;-64
2022/08/23 04:59:13;;;;;;;18.40;10.05;;;21.90;99.70;;;;;;5087614;28;20268;-63
2022/08/23 05:01:41;;;;;;;17.38;9.52;;;21.90;99.80;;;;;;5091769;28;20185;-63
2022/08/23 05:04:07;;;;;;;18.70;8.93;;;21.90;99.80;;;;;;5097979;28;20181;-63
2022/08/23 05:06:36;;;;;;;19.30;9.63;;;22.00;99.80;;;;;;5082626;28;20202;-63
2022/08/23 05:09:02;;;;;;;24.20;9.73;;;22.00;99.90;;;;;;5077297;28;20189;-61
2022/08/23 05:11:31;;;;;;;18.30;9.73;;;22.00;99.90;;;;;;5090040;28;20186;-61
2022/08/23 05:13:57;;;;;;;20.92;9.63;;;22.00;99.90;;;;;;5096059;28;20727;-61
2022/08/23 05:16:24;;;;;;;19.17;9.82;;;22.00;99.90;;;;;;5090556;28;20221;-61
2022/08/23 05:18:56;;;;;;;18.70;10.02;;;22.00;99.90;;;;;;5114850;28;20193;-60
2022/08/23 05:21:24;;;;;;;15.77;9.40;;;22.00;99.90;;;;;;5084710;28;20178;-60
2022/08/23 05:23:51;;;;;;;21.15;10.30;;;22.00;99.90;;;;;;5077397;28;20277;-62
2022/08/23 05:26:19;;;;;;;20.48;10.27;;;22.00;99.90;;;;;;5091413;28;20206;-63
2022/08/23 05:28:47;;;;;;;19.02;9.70;;;22.00;99.90;;;;;;5115635;28;20180;-63
2022/08/23 05:31:18;;;;;;;20.77;9.63;;;22.00;99.90;;;;;;5080074;28;20271;-63
2022/08/23 05:33:57;;;;;;;19.75;9.18;;;22.00;99.90;;;;;;5082398;28;20178;-61
2022/08/23 05:36:34;;;;;;;20.73;9.40;;;22.00;99.90;;;;;;5094887;28;20189;-63
2022/08/23 05:38:59;;;;;;;17.63;9.68;;;22.10;99.90;;;;;;5092466;28;20260;-62
2022/08/23 05:41:26;;;;;;;21.88;10.25;;;22.10;99.90;;;;;;5070013;28;20227;-60
2022/08/23 05:43:53;;;;;;;16.23;9.90;;;22.10;99.90;;;;;;5096740;28;20188;-60
2022/08/23 05:46:21;;;;;;;19.50;9.77;;;22.10;99.90;;;;;;5098160;27;20580;-59
2022/08/23 05:48:56;;;;;;;18.60;9.38;;;22.10;99.90;;;;;;5088616;28;20184;-65
2022/08/23 05:51:26;;;;;;;19.25;9.85;;;22.10;99.90;;;;;;5066687;27;20177;-67
2022/08/23 05:53:56;;;;;;;18.67;9.55;;;22.20;99.90;;;;;;5095713;28;20219;-63
2022/08/23 05:56:32;;;;;;;20.55;9.98;;;22.20;99.90;;;;;;5093347;28;20483;-60
2022/08/23 05:59:02;;;;;;;23.17;9.52;;;22.10;99.90;;;;;;5096836;28;20256;-59
2022/08/23 06:01:29;;;;;;;19.20;9.95;;;22.10;99.90;;;;;;5094707;28;20165;-64
2022/08/23 06:03:59;;;;;;;21.40;10.35;;;22.10;99.90;;;;;;5078611;28;20194;-62
2022/08/23 06:06:25;;;;;;;22.38;10.52;;;22.20;99.90;;;;;;5094354;28;20177;-62
2022/08/23 06:08:51;;;;;;;21.55;10.90;;;22.10;99.90;;;;;;5076279;28;20663;-63
2022/08/23 06:11:21;;;;;;;21.95;9.73;;;22.10;99.90;;;;;;5084896;28;20215;-60
2022/08/23 06:13:49;;;;;;;21.35;8.52;;;22.10;99.90;;;;;;5095831;28;20169;-64
2022/08/23 06:16:17;;;;;;;18.15;8.50;;;22.10;99.90;;;;;;5084497;28;20292;-61
2022/08/23 06:18:45;;;;;;;21.10;8.90;;;22.00;99.80;;;;;;5090852;28;20276;-61
2022/08/23 06:21:41;;;;;;;21.92;9.35;;;22.00;99.40;;;;;;5095340;28;20213;-61
2022/08/23 06:24:07;;;;;;;18.08;9.38;;;22.00;99.20;;;;;;5093922;28;20227;-61
2022/08/23 06:26:39;;;;;;;20.30;9.38;;;22.00;99.10;;;;;;5090345;28;20185;-62
2022/08/23 06:29:09;;;;;;;22.33;9.82;;;21.90;99.00;;;;;;5096272;28;20728;-61
2022/08/23 06:31:48;;;;;;;18.60;9.20;;;21.90;99.00;;;;;;5068890;28;20253;-61
2022/08/23 06:34:32;;;;;;;21.60;9.60;;;21.90;98.90;;;;;;5095059;28;20176;-62
2022/08/23 06:37:21;;;;;;;18.15;9.25;;;21.90;98.80;;;;;;5110912;28;20648;-62
2022/08/23 06:40:07;;;;;;;21.10;9.80;;;21.90;98.70;;;;;;5077063;28;20173;-62
2022/08/23 06:42:46;;;;;;;22.80;11.32;;;22.00;98.70;;;;;;5060878;28;20170;-62
2022/08/23 06:45:17;;;;;;;23.50;9.98;;;22.00;98.60;;;;;;5076233;28;20591;-62
2022/08/23 06:47:46;;;;;;;21.33;9.73;;;22.10;98.60;;;;;;5093053;28;20190;-63
2022/08/23 06:50:12;;;;;;;19.10;9.52;;;22.10;98.70;;;;;;5108323;28;20235;-64
2022/08/23 06:52:57;;;;;;;24.88;10.07;;;22.10;98.70;;;;;;5113654;28;20291;-64
2022/08/23 06:55:34;;;;;;;21.15;9.63;;;22.20;98.70;;;;;;5072831;28;20208;-64
2022/08/23 06:58:21;;;;;;;19.08;9.35;;;22.20;98.80;;;;;;5074868;28;20178;-63
2022/08/23 07:01:29;;;;;;;19.52;9.43;;;22.30;98.90;;;;;;5093817;28;20222;-61
2022/08/23 07:04:19;;;;;;;17.98;8.35;;;22.30;99.30;;;;;;5061374;28;20174;-57
2022/08/23 07:07:13;;;;;;;17.27;7.93;;;22.40;99.30;;;;;;5108963;28;20647;-63
2022/08/23 07:09:40;;;;;;;16.70;7.72;;;22.50;99.50;;;;;;5080155;28;20177;-62
2022/08/23 07:12:07;;;;;;;18.90;6.72;;;22.50;99.90;;;;;;5087560;28;20284;-65
2022/08/23 07:14:36;;;;;;;12.38;6.40;;;22.60;99.90;;;;;;5095216;28;20247;-62
2022/08/23 07:17:02;;;;;;;14.18;6.80;;;22.70;99.90;;;;;;5088688;28;20173;-62
2022/08/23 07:19:33;;;;;;;15.10;6.63;;;22.70;99.90;;;;;;5095058;28;20284;-63
2022/08/23 07:22:01;;;;;;;17.65;7.38;;;22.80;99.90;;;;;;5105094;28;20173;-63
2022/08/23 07:24:28;;;;;;;17.40;7.05;;;22.80;99.90;;;;;;5094086;28;20212;-65
2022/08/23 07:26:54;;;;;;;16.98;7.13;;;22.90;99.90;;;;;;5086830;28;20628;-63
2022/08/23 07:29:22;;;;;;;18.90;8.82;;;22.90;99.90;;;;;;5075085;28;20219;-63
2022/08/23 07:31:50;;;;;;;18.00;6.80;;;22.90;99.90;;;;;;5090035;28;20246;-63
2022/08/23 07:34:16;;;;;;;11.50;5.85;;;23.00;99.90;;;;;;5113489;28;20180;-63
2022/08/23 07:36:44;;;;;;;11.98;5.93;;;23.00;99.90;;;;;;5086030;28;20185;-63
2022/08/23 07:39:11;;;;;;;18.10;5.90;;;23.10;99.90;;;;;;5086601;28;20177;-63
2022/08/23 07:41:37;;;;;;;9.77;5.68;;;23.10;99.90;;;;;;5092102;28;20185;-63
2022/08/23 07:44:07;;;;;;;14.43;5.97;;;23.20;99.90;;;;;;5078334;28;20530;-63
2022/08/23 07:46:35;;;;;;;11.63;5.18;;;23.20;99.90;;;;;;5093619;28;20188;-64
2022/08/23 07:49:03;;;;;;;12.63;4.88;;;23.30;99.90;;;;;;5094746;28;20226;-63
2022/08/23 07:51:37;;;;;;;9.40;3.80;;;23.40;99.90;;;;;;5099817;28;20219;-63
2022/08/23 07:54:06;;;;;;;11.77;3.38;;;23.50;99.90;;;;;;5080848;28;20213;-64
2022/08/23 07:56:35;;;;;;;7.55;3.17;;;23.70;99.90;;;;;;5075166;28;20194;-63
2022/08/23 07:59:08;;;;;;;5.90;2.83;;;23.70;99.90;;;;;;5074884;28;20198;-63
2022/08/23 08:01:42;;;;;;;9.32;2.85;;;23.80;99.90;;;;;;5076350;28;20176;-63
2022/08/23 08:04:08;;;;;;;7.38;2.58;;;23.90;99.90;;;;;;5087411;28;20181;-70
2022/08/23 08:06:47;;;;;;;7.28;2.90;;;23.90;99.90;;;;;;5090342;28;20629;-63
2022/08/23 08:09:14;;;;;;;8.10;2.60;;;24.00;99.90;;;;;;5114283;28;20211;-63
2022/08/23 08:11:43;;;;;;;7.25;2.58;;;24.10;99.90;;;;;;5083670;27;20177;-63
2022/08/23 08:14:11;;;;;;;11.35;3.40;;;24.20;99.90;;;;;;5078920;28;20234;-63
2022/08/23 08:16:49;;;;;;;5.13;2.22;;;24.30;99.90;;;;;;5082005;28;20333;-65
2022/08/23 08:19:21;;;;;;;7.80;2.30;;;24.50;99.90;;;;;;5098580;28;20177;-62
2022/08/23 08:21:47;;;;;;;6.68;2.30;;;24.60;99.90;;;;;;5112882;28;20185;-63
2022/08/23 08:24:33;;;;;;;6.32;2.10;;;24.60;99.90;;;;;;5085463;28;20208;-63
2022/08/23 08:27:07;;;;;;;6.80;2.00;;;24.70;99.90;;;;;;5095296;28;20177;-62
2022/08/23 08:29:33;;;;;;;5.53;3.10;;;24.80;99.90;;;;;;5097540;28;20186;-63
2022/08/23 08:31:59;;;;;;;6.60;2.35;;;24.80;99.90;;;;;;5094486;28;20181;-63
2022/08/23 08:34:25;;;;;;;6.28;2.22;;;25.00;99.90;;;;;;5080655;28;20646;-62
2022/08/23 08:36:53;;;;;;;7.40;2.85;;;25.00;99.90;;;;;;5081547;28;20174;-62
2022/08/23 08:39:28;;;;;;;7.95;2.30;;;25.10;99.90;;;;;;5092228;28;20230;-62
2022/08/23 08:42:06;;;;;;;9.70;2.33;;;25.20;99.90;;;;;;5094174;28;20188;-63
2022/08/23 08:45:09;;;;;;;6.40;2.55;;;25.20;99.90;;;;;;5095795;28;20192;-69
2022/08/23 08:47:49;;;;;;;5.15;1.70;;;25.20;99.60;;;;;;5077310;28;20173;-63
2022/08/23 08:50:33;;;;;;;5.78;2.25;;;25.20;99.60;;;;;;5080743;28;20660;-63
2022/08/23 08:53:15;;;;;;;8.18;2.00;;;25.20;99.50;;;;;;5098033;28;20180;-63
2022/08/23 08:56:14;;;;;;;8.70;2.22;;;25.30;99.50;;;;;;5096428;28;20213;-62
2022/08/23 08:59:00;;;;;;;7.82;2.00;;;25.30;99.30;;;;;;5077934;28;20546;-63
2022/08/23 09:01:35;;;;;;;5.38;1.90;;;25.40;99.20;;;;;;5078861;28;20185;-64
2022/08/23 09:04:02;;;;;;;5.65;1.85;;;25.50;99.30;;;;;;5078917;28;20181;-64
2022/08/23 09:07:05;;;;;;;4.82;1.77;;;25.60;99.00;;;;;;5084375;28;20173;-64
2022/08/23 09:09:53;;;;;;;6.80;1.88;;;25.80;98.70;;;;;;5077748;28;20177;-64
2022/08/23 09:12:48;;;;;;;7.43;1.98;;;25.80;98.40;;;;;;5097123;28;20649;-63
2022/08/23 09:15:24;;;;;;;4.68;2.25;;;25.80;98.10;;;;;;5094106;28;20213;-64
2022/08/23 09:18:06;;;;;;;7.55;2.30;;;25.80;97.80;;;;;;5086929;28;20173;-66
2022/08/23 09:20:33;;;;;;;10.13;2.40;;;25.80;98.10;;;;;;5087910;28;20318;-63
2022/08/23 09:23:22;;;;;;;5.68;2.03;;;25.80;97.90;;;;;;5094066;28;20209;-63
2022/08/23 09:25:56;;;;;;;14.10;2.58;;;25.90;97.80;;;;;;5094349;28;20181;-66
2022/08/23 09:28:35;;;;;;;4.45;2.10;;;25.90;97.80;;;;;;5097040;28;20172;-66
2022/08/23 09:31:02;;;;;;;5.90;1.95;;;25.90;97.70;;;;;;5104802;27;20641;-64
2022/08/23 09:33:41;;;;;;;9.82;2.97;;;25.90;97.60;;;;;;5077081;28;20174;-65
2022/08/23 09:36:14;;;;;;;10.52;2.70;;;26.00;97.50;;;;;;5112994;27;20236;-64
2022/08/23 09:38:52;;;;;;;9.07;2.00;;;26.00;97.30;;;;;;5095471;28;20181;-65
2022/08/23 09:41:26;;;;;;;7.25;2.28;;;26.00;97.20;;;;;;5082251;28;20173;-65
2022/08/23 09:43:54;;;;;;;5.35;1.80;;;25.90;97.10;;;;;;5076968;28;20173;-65
2022/08/23 09:46:34;;;;;;;6.00;1.90;;;25.90;97.20;;;;;;5084050;28;20173;-65
2022/08/23 09:49:28;;;;;;;9.57;2.13;;;25.80;97.30;;;;;;5093804;28;20193;-64
2022/08/23 09:52:11;;;;;;;5.25;1.83;;;25.90;97.40;;;;;;5108008;28;20303;-72
2022/08/23 09:54:40;;;;;;;5.35;2.42;;;25.90;97.40;;;;;;5076515;28;20304;-64
2022/08/23 09:57:10;;;;;;;5.32;2.08;;;26.00;97.30;;;;;;5079484;28;20175;-64
2022/08/23 09:59:50;;;;;;;4.80;1.88;;;26.10;97.20;;;;;;5093405;28;20178;-64
2022/08/23 10:02:22;;;;;;;4.05;1.77;;;26.20;97.00;;;;;;5095473;28;20271;-64
2022/08/23 10:04:56;;;;;;;8.60;1.80;;;26.30;96.90;;;;;;5096603;28;20189;-64
2022/08/23 10:07:33;;;;;;;4.78;2.00;;;26.30;96.80;;;;;;5108649;28;20219;-63
2022/08/23 10:10:16;;;;;;;3.67;1.58;;;26.50;96.70;;;;;;5106452;28;20166;-63
2022/08/23 10:12:43;;;;;;;10.30;2.60;;;26.60;96.40;;;;;;5096716;28;20192;-63
2022/08/23 10:15:10;;;;;;;4.60;1.80;;;26.60;96.20;;;;;;5104041;28;20339;-64
2022/08/23 10:18:07;;;;;;;13.43;2.28;;;26.50;96.00;;;;;;5091755;28;20181;-64
2022/08/23 10:20:52;;;;;;;11.07;2.40;;;26.50;95.90;;;;;;5105894;28;20178;-64
2022/08/23 10:23:17;;;;;;;8.52;2.00;;;26.50;95.90;;;;;;5076247;28;20174;-64
2022/08/23 10:25:56;;;;;;;4.82;2.13;;;26.50;96.00;;;;;;5083718;28;20181;-64
2022/08/23 10:31:53;;;;;;;5.72;2.17;;;26.30;96.10;;;;;;5107060;28;20197;-64
2022/08/23 10:34:32;;;;;;;6.85;2.13;;;26.30;96.40;;;;;;5081730;28;20189;-64
2022/08/23 10:37:19;;;;;;;5.57;2.15;;;26.40;96.40;;;;;;5082467;28;20180;-65
2022/08/23 10:39:59;;;;;;;6.70;2.15;;;26.50;96.60;;;;;;5110355;28;20177;-67
2022/08/23 10:42:36;;;;;;;8.95;2.20;;;26.50;96.50;;;;;;5094348;28;20577;-64
2022/08/23 10:45:09;;;;;;;8.23;2.15;;;26.50;96.30;;;;;;5086690;28;20577;-65
2022/08/23 10:47:37;;;;;;;7.68;2.33;;;26.50;96.40;;;;;;5074924;28;20174;-65
2022/08/23 10:50:12;;;;;;;8.63;2.53;;;26.60;96.40;;;;;;5075981;28;20257;-65
2022/08/23 10:53:14;;;;;;;5.28;2.22;;;26.70;96.10;;;;;;5076269;28;20178;-65
2022/08/23 10:56:04;;;;;;;10.65;2.42;;;26.80;95.80;;;;;;5088744;28;20567;-64
2022/08/23 10:58:45;;;;;;;6.82;3.00;;;26.80;95.70;;;;;;5075617;28;20181;-64
2022/08/23 11:01:23;;;;;;;7.78;2.65;;;26.80;95.50;;;;;;5059520;28;20178;-64
2022/08/23 11:04:07;;;;;;;9.30;2.47;;;26.80;95.50;;;;;;5083833;28;20616;-64
2022/08/23 11:06:53;;;;;;;9.52;3.20;;;26.90;95.40;;;;;;5094562;28;20189;-64
2022/08/23 11:09:19;;;;;;;8.60;2.40;;;27.00;95.00;;;;;;5084861;28;20499;-64
2022/08/23 11:12:01;;;;;;;4.85;2.40;;;27.00;95.10;;;;;;5076521;28;20177;-65
2022/08/23 11:14:30;;;;;;;7.15;2.30;;;27.10;95.10;;;;;;5092146;28;20223;-65
2022/08/23 11:16:59;;;;;;;5.95;2.30;;;27.20;95.10;;;;;;5088433;28;20226;-68
2022/08/23 11:19:54;;;;;;;7.78;3.30;;;27.40;95.20;;;;;;5104550;28;20185;-65
2022/08/23 11:22:27;;;;;;;7.75;2.95;;;27.60;94.20;;;;;;5091739;28;20640;-65
2022/08/23 11:25:04;;;;;;;11.55;3.17;;;27.70;93.90;;;;;;5082250;28;20231;-66
2022/08/23 11:27:42;;;;;;;6.68;3.10;;;27.80;93.50;;;;;;5075326;28;20165;-65
2022/08/23 11:30:33;;;;;;;7.60;3.40;;;28.00;93.00;;;;;;5061041;28;20575;-64
2022/08/23 11:33:21;;;;;;;10.05;3.40;;;28.10;92.50;;;;;;5089225;28;20166;-64
2022/08/23 11:35:54;;;;;;;6.72;3.28;;;28.20;92.20;;;;;;5082021;28;20208;-65
2022/08/23 11:38:47;;;;;;;5.00;2.70;;;28.30;91.80;;;;;;5089961;28;20169;-65
2022/08/23 11:41:13;;;;;;;4.90;1.83;;;28.20;91.60;;;;;;5091719;28;20184;-64
2022/08/23 11:43:42;;;;;;;6.15;2.13;;;28.10;91.90;;;;;;5091422;28;20180;-66
2022/08/23 11:46:27;;;;;;;8.13;2.25;;;28.00;92.00;;;;;;5096025;27;20176;-66
2022/08/23 11:49:41;;;;;;;10.13;1.77;;;27.90;92.20;;;;;;5078882;28;20177;-65
2022/08/23 11:52:37;;;;;;;8.65;2.10;;;27.60;92.50;;;;;;5011047;28;20199;-65
2022/08/23 11:55:18;;;;;;;6.45;1.92;;;27.50;92.90;;;;;;5115336;28;20196;-65
2022/08/23 11:57:44;;;;;;;6.88;2.33;;;27.30;93.20;;;;;;5096869;28;20166;-64
2022/08/23 12:00:32;;;;;;;10.20;2.60;;;27.10;93.50;;;;;;5096429;28;20188;-65
2022/08/23 12:03:32;;;;;;;6.30;2.03;;;27.10;93.70;;;;;;5088474;28;20177;-63
2022/08/23 12:06:13;;;;;;;7.47;2.35;;;27.10;94.00;;;;;;5106577;28;20511;-65
2022/08/23 12:08:50;;;;;;;13.05;2.42;;;27.10;93.90;;;;;;5109516;28;20233;-65
2022/08/23 12:11:18;;;;;;;6.95;2.17;;;27.20;93.90;;;;;;5107064;28;20621;-65
2022/08/23 12:13:48;;;;;;;5.40;2.17;;;27.20;94.00;;;;;;5098199;28;20233;-65
2022/08/23 12:16:18;;;;;;;5.00;2.00;;;27.20;94.10;;;;;;5114836;28;20197;-65
2022/08/23 12:18:51;;;;;;;5.38;2.35;;;27.10;94.30;;;;;;5082724;28;20177;-64
2022/08/23 12:21:20;;;;;;;8.63;2.50;;;27.20;94.40;;;;;;5097704;28;20194;-65
2022/08/23 12:23:49;;;;;;;5.15;2.17;;;27.30;94.30;;;;;;5115355;28;20221;-65
2022/08/23 12:26:24;;;;;;;9.07;2.50;;;27.50;94.20;;;;;;5104889;28;20192;-65
2022/08/23 12:28:56;;;;;;;10.05;2.70;;;27.60;93.60;;;;;;5095744;28;20177;-65
2022/08/23 12:31:33;;;;;;;9.90;2.50;;;27.80;93.30;;;;;;5096684;28;20204;-65
2022/08/23 12:34:58;;;;;;;9.52;2.90;;;27.90;92.80;;;;;;5097168;28;20169;-62
2022/08/23 12:37:49;;;;;;;7.10;2.40;;;27.90;92.40;;;;;;4999539;28;20224;-66
2022/08/23 12:40:40;;;;;;;8.73;2.45;;;28.00;92.30;;;;;;5113365;28;20183;-66
2022/08/23 12:43:10;;;;;;;6.68;2.08;;;28.20;92.10;;;;;;5104752;28;20226;-65
2022/08/23 12:45:43;;;;;;;6.15;2.38;;;28.40;91.80;;;;;;5107400;28;20185;-67
2022/08/23 12:48:15;;;;;;;8.90;2.13;;;28.60;91.40;;;;;;5109325;28;20226;-62
2022/08/23 12:50:50;;;;;;;6.95;2.40;;;28.70;90.90;;;;;;5090606;28;20549;-62
2022/08/23 12:53:27;;;;;;;10.15;2.50;;;28.80;90.50;;;;;;5095848;28;20163;-62
2022/08/23 12:56:03;;;;;;;7.70;2.53;;;28.70;90.00;;;;;;5095940;28;20223;-62
2022/08/23 12:58:32;;;;;;;8.75;2.30;;;28.80;90.10;;;;;;5109582;28;20171;-62
2022/08/23 13:01:02;;;;;;;7.07;2.53;;;28.90;89.20;;;;;;5105165;28;20170;-62
2022/08/23 13:03:38;;;;;;;5.43;2.30;;;28.90;87.90;;;;;;5094428;28;20176;-63
2022/08/23 13:06:14;;;;;;;4.40;2.20;;;28.80;87.10;;;;;;5102450;27;20640;-62
2022/08/23 13:08:46;;;;;;;8.55;1.98;;;28.80;86.70;;;;;;5109866;28;20644;-62
2022/08/23 13:11:16;;;;;;;8.50;2.15;;;28.90;86.70;;;;;;5086408;28;20223;-61
2022/08/23 13:13:43;;;;;;;6.60;2.20;;;28.90;85.30;;;;;;5113814;28;20180;-62
2022/08/23 13:16:42;;;;;;;4.22;2.00;;;28.90;85.00;;;;;;5104003;28;20209;-61
2022/08/23 13:19:26;;;;;;;5.15;2.25;;;29.00;84.50;;;;;;5061833;28;20217;-62
2022/08/23 13:22:31;;;;;;;5.60;2.33;;;29.10;83.50;;;;;;5077979;28;20255;-63
2022/08/23 13:25:05;;;;;;;9.73;2.60;;;29.20;83.00;;;;;;5028554;28;20179;-61